sensor_id;sensor_type;location;lat;lon;timestamp;pressure;altitude;pressure_sealevel;temperature;humidity
61359;BME280;47228;46.762;23.598;2023-06-05T00:00:46;97636.11;;;15.95;67.34
61359;BME280;47228;46.762;23.598;2023-06-05T00:03:34;97636.63;;;15.93;67.35
61359;BME280;47228;46.762;23.598;2023-06-05T00:06:07;97636.23;;;15.89;67.21
61359;BME280;47228;46.762;23.598;2023-06-05T00:08:35;97636.17;;;15.87;67.23
61359;BME280;47228;46.762;23.598;2023-06-05T00:11:03;97636.33;;;15.84;67.31
61359;BME280;47228;46.762;23.598;2023-06-05T00:13:31;97634.80;;;15.83;67.06
61359;BME280;47228;46.762;23.598;2023-06-05T00:15:59;97631.86;;;15.81;66.90
61359;BME280;47228;46.762;23.598;2023-06-05T00:18:30;97628.08;;;15.79;66.93
61359;BME280;47228;46.762;23.598;2023-06-05T00:20:58;97629.17;;;15.76;67.10
61359;BME280;47228;46.762;23.598;2023-06-05T00:23:26;97629.67;;;15.73;67.31
61359;BME280;47228;46.762;23.598;2023-06-05T00:25:55;97630.06;;;15.69;67.47
61359;BME280;47228;46.762;23.598;2023-06-05T00:28:23;97631.23;;;15.62;67.60
61359;BME280;47228;46.762;23.598;2023-06-05T00:30:52;97634.23;;;15.55;67.75
61359;BME280;47228;46.762;23.598;2023-06-05T00:33:20;97635.83;;;15.50;67.99
61359;BME280;47228;46.762;23.598;2023-06-05T00:35:48;97637.92;;;15.47;68.22
61359;BME280;47228;46.762;23.598;2023-06-05T00:38:15;97635.84;;;15.43;68.10
61359;BME280;47228;46.762;23.598;2023-06-05T00:40:43;97635.52;;;15.36;68.21
61359;BME280;47228;46.762;23.598;2023-06-05T00:43:11;97636.83;;;15.31;68.56
61359;BME280;47228;46.762;23.598;2023-06-05T00:45:39;97634.84;;;15.27;68.66
61359;BME280;47228;46.762;23.598;2023-06-05T00:48:08;97636.23;;;15.23;68.56
61359;BME280;47228;46.762;23.598;2023-06-05T00:50:36;97636.00;;;15.20;68.53
61359;BME280;47228;46.762;23.598;2023-06-05T00:53:06;97638.98;;;15.18;68.87
61359;BME280;47228;46.762;23.598;2023-06-05T00:55:34;97641.40;;;15.16;68.83
61359;BME280;47228;46.762;23.598;2023-06-05T00:58:04;97636.60;;;15.12;68.81
61359;BME280;47228;46.762;23.598;2023-06-05T01:00:32;97636.70;;;15.10;68.90
61359;BME280;47228;46.762;23.598;2023-06-05T01:03:01;97640.59;;;15.06;68.98
61359;BME280;47228;46.762;23.598;2023-06-05T01:05:30;97640.09;;;15.03;69.06
61359;BME280;47228;46.762;23.598;2023-06-05T01:07:58;97641.86;;;14.99;69.13
61359;BME280;47228;46.762;23.598;2023-06-05T01:10:31;97639.30;;;14.96;69.35
61359;BME280;47228;46.762;23.598;2023-06-05T01:13:17;97639.05;;;14.94;69.53
61359;BME280;47228;46.762;23.598;2023-06-05T01:15:50;97641.66;;;14.92;69.55
61359;BME280;47228;46.762;23.598;2023-06-05T01:18:21;97639.48;;;14.91;69.43
61359;BME280;47228;46.762;23.598;2023-06-05T01:20:50;97639.40;;;14.89;69.42
61359;BME280;47228;46.762;23.598;2023-06-05T01:23:19;97640.80;;;14.88;69.56
61359;BME280;47228;46.762;23.598;2023-06-05T01:25:53;97636.89;;;14.85;69.25
61359;BME280;47228;46.762;23.598;2023-06-05T01:28:25;97640.98;;;14.83;69.27
61359;BME280;47228;46.762;23.598;2023-06-05T01:31:09;97639.19;;;14.80;69.30
61359;BME280;47228;46.762;23.598;2023-06-05T01:33:54;97642.96;;;14.78;69.43
61359;BME280;47228;46.762;23.598;2023-06-05T01:36:24;97645.00;;;14.75;69.41
61359;BME280;47228;46.762;23.598;2023-06-05T01:38:53;97644.01;;;14.72;69.39
61359;BME280;47228;46.762;23.598;2023-06-05T01:41:23;97640.91;;;14.68;69.67
61359;BME280;47228;46.762;23.598;2023-06-05T01:43:53;97639.95;;;14.66;69.80
61359;BME280;47228;46.762;23.598;2023-06-05T01:46:22;97640.86;;;14.65;69.94
61359;BME280;47228;46.762;23.598;2023-06-05T01:48:51;97640.50;;;14.64;69.74
61359;BME280;47228;46.762;23.598;2023-06-05T01:51:20;97644.44;;;14.61;69.76
61359;BME280;47228;46.762;23.598;2023-06-05T01:53:48;97648.05;;;14.58;70.01
61359;BME280;47228;46.762;23.598;2023-06-05T01:56:17;97649.18;;;14.56;69.98
61359;BME280;47228;46.762;23.598;2023-06-05T01:58:51;97649.16;;;14.54;69.70
61359;BME280;47228;46.762;23.598;2023-06-05T02:01:20;97646.36;;;14.51;69.77
61359;BME280;47228;46.762;23.598;2023-06-05T02:03:50;97649.55;;;14.49;69.95
61359;BME280;47228;46.762;23.598;2023-06-05T02:06:21;97646.08;;;14.45;70.13
61359;BME280;47228;46.762;23.598;2023-06-05T02:08:49;97648.86;;;14.42;70.11
61359;BME280;47228;46.762;23.598;2023-06-05T02:11:17;97649.38;;;14.38;69.96
61359;BME280;47228;46.762;23.598;2023-06-05T02:13:45;97649.64;;;14.34;70.26
61359;BME280;47228;46.762;23.598;2023-06-05T02:16:17;97650.90;;;14.32;70.15
61359;BME280;47228;46.762;23.598;2023-06-05T02:18:45;97645.42;;;14.29;70.14
61359;BME280;47228;46.762;23.598;2023-06-05T02:21:16;97644.67;;;14.25;70.00
61359;BME280;47228;46.762;23.598;2023-06-05T02:23:44;97643.97;;;14.21;70.16
61359;BME280;47228;46.762;23.598;2023-06-05T02:26:13;97643.50;;;14.17;70.54
61359;BME280;47228;46.762;23.598;2023-06-05T02:28:41;97646.55;;;14.13;70.42
61359;BME280;47228;46.762;23.598;2023-06-05T02:31:09;97648.02;;;14.11;70.57
61359;BME280;47228;46.762;23.598;2023-06-05T02:33:38;97644.64;;;14.09;70.66
61359;BME280;47228;46.762;23.598;2023-06-05T02:36:06;97646.05;;;14.08;70.93
61359;BME280;47228;46.762;23.598;2023-06-05T02:38:34;97644.83;;;14.06;70.99
61359;BME280;47228;46.762;23.598;2023-06-05T02:41:02;97645.02;;;14.05;71.15
61359;BME280;47228;46.762;23.598;2023-06-05T02:43:29;97643.09;;;14.05;71.60
61359;BME280;47228;46.762;23.598;2023-06-05T02:45:57;97640.49;;;14.06;71.22
61359;BME280;47228;46.762;23.598;2023-06-05T02:48:25;97642.14;;;14.05;71.18
61359;BME280;47228;46.762;23.598;2023-06-05T02:50:53;97642.83;;;14.07;71.13
61359;BME280;47228;46.762;23.598;2023-06-05T02:53:21;97642.94;;;14.08;71.18
61359;BME280;47228;46.762;23.598;2023-06-05T02:55:49;97640.89;;;14.11;71.21
61359;BME280;47228;46.762;23.598;2023-06-05T02:58:17;97642.27;;;14.13;71.27
61359;BME280;47228;46.762;23.598;2023-06-05T03:00:45;97640.16;;;14.16;70.98
61359;BME280;47228;46.762;23.598;2023-06-05T03:03:14;97639.64;;;14.18;70.66
61359;BME280;47228;46.762;23.598;2023-06-05T03:05:44;97638.52;;;14.19;70.51
61359;BME280;47228;46.762;23.598;2023-06-05T03:08:12;97639.80;;;14.18;70.19
61359;BME280;47228;46.762;23.598;2023-06-05T03:10:40;97638.86;;;14.15;70.02
61359;BME280;47228;46.762;23.598;2023-06-05T03:13:08;97635.42;;;14.11;70.15
61359;BME280;47228;46.762;23.598;2023-06-05T03:15:36;97636.83;;;14.06;70.04
61359;BME280;47228;46.762;23.598;2023-06-05T03:18:04;97637.15;;;14.02;70.06
61359;BME280;47228;46.762;23.598;2023-06-05T03:20:32;97637.18;;;13.99;70.22
61359;BME280;47228;46.762;23.598;2023-06-05T03:23:00;97635.78;;;13.99;70.24
61359;BME280;47228;46.762;23.598;2023-06-05T03:25:28;97635.98;;;13.98;70.53
61359;BME280;47228;46.762;23.598;2023-06-05T03:27:56;97635.13;;;14.00;70.44
61359;BME280;47228;46.762;23.598;2023-06-05T03:30:24;97631.73;;;14.01;70.56
61359;BME280;47228;46.762;23.598;2023-06-05T03:32:52;97632.71;;;14.03;70.35
61359;BME280;47228;46.762;23.598;2023-06-05T03:35:20;97636.34;;;14.05;70.44
61359;BME280;47228;46.762;23.598;2023-06-05T03:37:48;97636.37;;;14.07;70.21
61359;BME280;47228;46.762;23.598;2023-06-05T03:40:16;97637.94;;;14.10;70.09
61359;BME280;47228;46.762;23.598;2023-06-05T03:42:44;97633.73;;;14.12;69.79
61359;BME280;47228;46.762;23.598;2023-06-05T03:45:12;97632.12;;;14.14;69.71
61359;BME280;47228;46.762;23.598;2023-06-05T03:47:41;97638.18;;;14.16;69.91
61359;BME280;47228;46.762;23.598;2023-06-05T03:50:11;97635.61;;;14.17;69.83
61359;BME280;47228;46.762;23.598;2023-06-05T03:52:39;97635.05;;;14.19;69.60
61359;BME280;47228;46.762;23.598;2023-06-05T03:55:08;97635.77;;;14.20;69.36
61359;BME280;47228;46.762;23.598;2023-06-05T03:57:37;97636.83;;;14.24;69.39
61359;BME280;47228;46.762;23.598;2023-06-05T04:00:09;97639.95;;;14.28;69.75
61359;BME280;47228;46.762;23.598;2023-06-05T04:02:37;97644.41;;;14.35;69.78
61359;BME280;47228;46.762;23.598;2023-06-05T04:05:06;97646.19;;;14.40;69.74
61359;BME280;47228;46.762;23.598;2023-06-05T04:07:34;97647.65;;;14.44;70.00
61359;BME280;47228;46.762;23.598;2023-06-05T04:10:02;97644.14;;;14.46;69.47
61359;BME280;47228;46.762;23.598;2023-06-05T04:12:30;97639.88;;;14.45;68.86
61359;BME280;47228;46.762;23.598;2023-06-05T04:14:58;97638.77;;;14.46;68.89
61359;BME280;47228;46.762;23.598;2023-06-05T04:17:27;97634.80;;;14.47;69.15
61359;BME280;47228;46.762;23.598;2023-06-05T04:19:55;97633.20;;;14.50;68.96
61359;BME280;47228;46.762;23.598;2023-06-05T04:22:23;97628.45;;;14.53;68.96
61359;BME280;47228;46.762;23.598;2023-06-05T04:24:51;97627.85;;;14.56;68.81
61359;BME280;47228;46.762;23.598;2023-06-05T04:27:18;97626.77;;;14.57;68.66
61359;BME280;47228;46.762;23.598;2023-06-05T04:29:47;97628.09;;;14.59;68.62
61359;BME280;47228;46.762;23.598;2023-06-05T04:32:18;97632.03;;;14.60;68.72
61359;BME280;47228;46.762;23.598;2023-06-05T04:34:45;97632.27;;;14.61;68.66
61359;BME280;47228;46.762;23.598;2023-06-05T04:37:13;97627.75;;;14.63;68.80
61359;BME280;47228;46.762;23.598;2023-06-05T04:39:41;97632.11;;;14.67;68.74
61359;BME280;47228;46.762;23.598;2023-06-05T04:42:11;97634.59;;;14.74;68.74
61359;BME280;47228;46.762;23.598;2023-06-05T04:44:42;97635.98;;;14.82;68.85
61359;BME280;47228;46.762;23.598;2023-06-05T04:47:10;97637.43;;;14.90;68.41
61359;BME280;47228;46.762;23.598;2023-06-05T04:49:38;97637.40;;;14.96;67.52
61359;BME280;47228;46.762;23.598;2023-06-05T04:52:07;97643.45;;;15.01;66.85
61359;BME280;47228;46.762;23.598;2023-06-05T04:54:35;97644.20;;;15.03;66.89
61359;BME280;47228;46.762;23.598;2023-06-05T04:57:03;97644.05;;;15.05;67.06
61359;BME280;47228;46.762;23.598;2023-06-05T04:59:33;97643.08;;;15.07;66.81
61359;BME280;47228;46.762;23.598;2023-06-05T05:02:01;97637.58;;;15.09;66.72
61359;BME280;47228;46.762;23.598;2023-06-05T05:04:29;97637.87;;;15.12;66.37
61359;BME280;47228;46.762;23.598;2023-06-05T05:06:57;97641.22;;;15.13;66.29
61359;BME280;47228;46.762;23.598;2023-06-05T05:09:31;97643.98;;;15.17;66.33
61359;BME280;47228;46.762;23.598;2023-06-05T05:11:59;97644.11;;;15.19;66.40
61359;BME280;47228;46.762;23.598;2023-06-05T05:14:28;97642.54;;;15.23;66.68
61359;BME280;47228;46.762;23.598;2023-06-05T05:16:56;97645.48;;;15.28;67.09
61359;BME280;47228;46.762;23.598;2023-06-05T05:19:24;97647.03;;;15.34;66.79
61359;BME280;47228;46.762;23.598;2023-06-05T05:21:52;97645.54;;;15.43;66.70
61359;BME280;47228;46.762;23.598;2023-06-05T05:24:20;97645.61;;;15.51;66.73
61359;BME280;47228;46.762;23.598;2023-06-05T05:26:49;97649.74;;;15.59;66.60
61359;BME280;47228;46.762;23.598;2023-06-05T05:29:18;97651.53;;;15.66;65.74
61359;BME280;47228;46.762;23.598;2023-06-05T05:31:46;97653.02;;;15.72;65.49
61359;BME280;47228;46.762;23.598;2023-06-05T05:34:14;97650.58;;;15.78;65.24
61359;BME280;47228;46.762;23.598;2023-06-05T05:36:42;97648.16;;;15.82;65.42
61359;BME280;47228;46.762;23.598;2023-06-05T05:39:10;97648.96;;;15.90;65.64
61359;BME280;47228;46.762;23.598;2023-06-05T05:41:38;97647.09;;;15.99;65.82
61359;BME280;47228;46.762;23.598;2023-06-05T05:44:06;97641.15;;;16.08;64.83
61359;BME280;47228;46.762;23.598;2023-06-05T05:46:34;97641.31;;;16.15;64.41
61359;BME280;47228;46.762;23.598;2023-06-05T05:49:02;97643.95;;;16.23;63.99
61359;BME280;47228;46.762;23.598;2023-06-05T05:51:30;97648.56;;;16.30;64.01
61359;BME280;47228;46.762;23.598;2023-06-05T05:53:59;97647.55;;;16.38;63.58
61359;BME280;47228;46.762;23.598;2023-06-05T05:56:28;97646.08;;;16.46;63.67
61359;BME280;47228;46.762;23.598;2023-06-05T05:58:56;97647.17;;;16.55;63.45
61359;BME280;47228;46.762;23.598;2023-06-05T06:01:24;97647.45;;;16.62;62.77
61359;BME280;47228;46.762;23.598;2023-06-05T06:03:52;97648.05;;;16.71;62.89
61359;BME280;47228;46.762;23.598;2023-06-05T06:06:20;97649.79;;;16.80;62.33
61359;BME280;47228;46.762;23.598;2023-06-05T06:08:48;97650.30;;;16.86;61.85
61359;BME280;47228;46.762;23.598;2023-06-05T06:11:16;97647.33;;;16.94;61.90
61359;BME280;47228;46.762;23.598;2023-06-05T06:13:44;97649.16;;;17.02;61.33
61359;BME280;47228;46.762;23.598;2023-06-05T06:16:12;97645.52;;;17.09;60.80
61359;BME280;47228;46.762;23.598;2023-06-05T06:18:40;97645.52;;;17.18;60.42
61359;BME280;47228;46.762;23.598;2023-06-05T06:21:09;97649.33;;;17.27;60.37
61359;BME280;47228;46.762;23.598;2023-06-05T06:23:37;97650.27;;;17.37;60.16
61359;BME280;47228;46.762;23.598;2023-06-05T06:26:05;97647.34;;;17.48;59.63
61359;BME280;47228;46.762;23.598;2023-06-05T06:28:34;97649.27;;;17.60;59.21
61359;BME280;47228;46.762;23.598;2023-06-05T06:31:02;97648.41;;;17.72;58.74
61359;BME280;47228;46.762;23.598;2023-06-05T06:33:31;97647.04;;;17.84;58.33
61359;BME280;47228;46.762;23.598;2023-06-05T06:35:59;97643.95;;;17.95;58.17
61359;BME280;47228;46.762;23.598;2023-06-05T06:38:28;97642.12;;;18.05;57.61
61359;BME280;47228;46.762;23.598;2023-06-05T06:40:59;97640.67;;;18.15;57.60
61359;BME280;47228;46.762;23.598;2023-06-05T06:43:27;97643.83;;;18.24;58.34
61359;BME280;47228;46.762;23.598;2023-06-05T06:45:55;97644.31;;;18.36;58.03
61359;BME280;47228;46.762;23.598;2023-06-05T06:48:23;97642.27;;;18.47;56.83
61359;BME280;47228;46.762;23.598;2023-06-05T06:50:51;97639.03;;;18.58;57.06
61359;BME280;47228;46.762;23.598;2023-06-05T06:53:20;97632.66;;;18.69;57.42
61359;BME280;47228;46.762;23.598;2023-06-05T06:55:48;97636.10;;;18.82;57.38
61359;BME280;47228;46.762;23.598;2023-06-05T06:58:16;97637.75;;;18.94;57.08
61359;BME280;47228;46.762;23.598;2023-06-05T07:00:44;97638.91;;;19.06;56.40
61359;BME280;47228;46.762;23.598;2023-06-05T07:03:12;97641.25;;;19.16;56.05
61359;BME280;47228;46.762;23.598;2023-06-05T07:05:41;97636.69;;;19.27;56.60
61359;BME280;47228;46.762;23.598;2023-06-05T07:08:09;97631.08;;;19.37;55.95
61359;BME280;47228;46.762;23.598;2023-06-05T07:10:37;97626.37;;;19.46;55.29
61359;BME280;47228;46.762;23.598;2023-06-05T07:13:05;97624.14;;;19.55;54.95
61359;BME280;47228;46.762;23.598;2023-06-05T07:15:33;97624.05;;;19.63;55.26
61359;BME280;47228;46.762;23.598;2023-06-05T07:18:01;97622.14;;;19.72;55.20
61359;BME280;47228;46.762;23.598;2023-06-05T07:20:30;97619.79;;;19.80;54.55
61359;BME280;47228;46.762;23.598;2023-06-05T07:22:59;97622.75;;;19.89;55.65
61359;BME280;47228;46.762;23.598;2023-06-05T07:25:27;97624.03;;;19.99;55.60
61359;BME280;47228;46.762;23.598;2023-06-05T07:27:56;97624.27;;;20.08;54.72
61359;BME280;47228;46.762;23.598;2023-06-05T07:30:23;97626.15;;;20.15;54.55
61359;BME280;47228;46.762;23.598;2023-06-05T07:32:51;97624.20;;;20.23;54.41
61359;BME280;47228;46.762;23.598;2023-06-05T07:35:19;97622.59;;;20.33;54.75
61359;BME280;47228;46.762;23.598;2023-06-05T07:37:48;97623.23;;;20.43;54.59
61359;BME280;47228;46.762;23.598;2023-06-05T07:40:16;97621.57;;;20.53;55.09
61359;BME280;47228;46.762;23.598;2023-06-05T07:42:45;97616.00;;;20.62;54.91
61359;BME280;47228;46.762;23.598;2023-06-05T07:45:13;97614.21;;;20.71;54.43
61359;BME280;47228;46.762;23.598;2023-06-05T07:47:41;97615.60;;;20.80;54.51
61359;BME280;47228;46.762;23.598;2023-06-05T07:50:09;97609.29;;;20.90;55.21
61359;BME280;47228;46.762;23.598;2023-06-05T07:52:37;97610.25;;;21.01;55.10
61359;BME280;47228;46.762;23.598;2023-06-05T07:55:06;97611.47;;;21.14;54.56
61359;BME280;47228;46.762;23.598;2023-06-05T07:57:35;97607.40;;;21.26;53.90
61359;BME280;47228;46.762;23.598;2023-06-05T08:00:04;97610.01;;;21.37;54.35
61359;BME280;47228;46.762;23.598;2023-06-05T08:02:38;97611.42;;;21.50;53.88
61359;BME280;47228;46.762;23.598;2023-06-05T08:05:06;97612.95;;;21.62;53.46
61359;BME280;47228;46.762;23.598;2023-06-05T08:07:34;97613.84;;;21.73;52.45
61359;BME280;47228;46.762;23.598;2023-06-05T08:10:02;97617.52;;;21.84;52.79
61359;BME280;47228;46.762;23.598;2023-06-05T08:12:31;97615.89;;;21.96;52.93
61359;BME280;47228;46.762;23.598;2023-06-05T08:14:59;97616.69;;;22.11;52.64
61359;BME280;47228;46.762;23.598;2023-06-05T08:17:30;97619.02;;;22.23;52.14
61359;BME280;47228;46.762;23.598;2023-06-05T08:19:58;97617.63;;;22.34;51.88
61359;BME280;47228;46.762;23.598;2023-06-05T08:22:26;97614.36;;;22.42;51.45
61359;BME280;47228;46.762;23.598;2023-06-05T08:24:56;97616.52;;;22.47;51.50
61359;BME280;47228;46.762;23.598;2023-06-05T08:27:27;97616.13;;;22.56;51.51
61359;BME280;47228;46.762;23.598;2023-06-05T08:29:54;97613.73;;;22.64;51.22
61359;BME280;47228;46.762;23.598;2023-06-05T08:32:22;97611.05;;;22.74;50.92
61359;BME280;47228;46.762;23.598;2023-06-05T08:34:50;97610.09;;;22.82;51.35
61359;BME280;47228;46.762;23.598;2023-06-05T08:37:18;97606.04;;;22.90;51.43
61359;BME280;47228;46.762;23.598;2023-06-05T08:39:46;97606.86;;;22.98;51.07
61359;BME280;47228;46.762;23.598;2023-06-05T08:42:14;97605.21;;;23.04;50.75
61359;BME280;47228;46.762;23.598;2023-06-05T08:44:46;97606.23;;;23.13;50.76
61359;BME280;47228;46.762;23.598;2023-06-05T08:47:29;97609.48;;;23.23;50.41
61359;BME280;47228;46.762;23.598;2023-06-05T08:50:03;97608.96;;;23.31;50.16
61359;BME280;47228;46.762;23.598;2023-06-05T08:52:42;97601.86;;;23.43;50.35
61359;BME280;47228;46.762;23.598;2023-06-05T08:55:10;97598.09;;;23.56;50.13
61359;BME280;47228;46.762;23.598;2023-06-05T08:57:40;97598.05;;;23.68;49.72
61359;BME280;47228;46.762;23.598;2023-06-05T09:00:09;97600.38;;;23.74;48.99
61359;BME280;47228;46.762;23.598;2023-06-05T09:02:41;97600.88;;;23.80;49.33
61359;BME280;47228;46.762;23.598;2023-06-05T09:05:15;97595.60;;;23.89;49.38
61359;BME280;47228;46.762;23.598;2023-06-05T09:07:44;97598.15;;;24.00;49.16
61359;BME280;47228;46.762;23.598;2023-06-05T09:10:23;97600.05;;;24.14;48.95
61359;BME280;47228;46.762;23.598;2023-06-05T09:12:52;97597.47;;;24.28;49.02
61359;BME280;47228;46.762;23.598;2023-06-05T09:15:28;97596.41;;;24.42;48.58
61359;BME280;47228;46.762;23.598;2023-06-05T09:18:09;97592.94;;;24.51;48.32
61359;BME280;47228;46.762;23.598;2023-06-05T09:20:40;97595.61;;;24.59;48.36
61359;BME280;47228;46.762;23.598;2023-06-05T09:25:56;97593.67;;;24.72;47.65
61359;BME280;47228;46.762;23.598;2023-06-05T09:28:25;97596.31;;;24.64;47.71
61359;BME280;47228;46.762;23.598;2023-06-05T09:31:03;97594.70;;;24.58;47.60
61359;BME280;47228;46.762;23.598;2023-06-05T09:33:33;97592.11;;;24.52;46.81
61359;BME280;47228;46.762;23.598;2023-06-05T09:36:03;97591.59;;;24.41;47.03
61359;BME280;47228;46.762;23.598;2023-06-05T09:38:32;97589.26;;;24.30;47.95
61359;BME280;47228;46.762;23.598;2023-06-05T09:41:11;97589.50;;;24.33;48.43
61359;BME280;47228;46.762;23.598;2023-06-05T09:43:39;97587.95;;;24.50;48.11
61359;BME280;47228;46.762;23.598;2023-06-05T09:46:11;97589.50;;;24.66;47.58
61359;BME280;47228;46.762;23.598;2023-06-05T09:48:41;97588.80;;;24.83;48.21
61359;BME280;47228;46.762;23.598;2023-06-05T09:51:16;97587.27;;;25.03;47.96
61359;BME280;47228;46.762;23.598;2023-06-05T09:53:48;97586.71;;;25.22;48.20
61359;BME280;47228;46.762;23.598;2023-06-05T09:56:18;97578.59;;;25.43;47.95
61359;BME280;47228;46.762;23.598;2023-06-05T09:58:49;97573.06;;;25.50;46.77
61359;BME280;47228;46.762;23.598;2023-06-05T10:01:18;97565.52;;;25.48;47.16
61359;BME280;47228;46.762;23.598;2023-06-05T10:04:05;97565.75;;;25.58;47.01
61359;BME280;47228;46.762;23.598;2023-06-05T10:06:33;97561.23;;;25.63;45.28
61359;BME280;47228;46.762;23.598;2023-06-05T10:09:02;97560.02;;;25.53;44.86
61359;BME280;47228;46.762;23.598;2023-06-05T10:11:31;97561.76;;;25.38;45.28
61359;BME280;47228;46.762;23.598;2023-06-05T10:14:00;97562.66;;;25.26;45.50
61359;BME280;47228;46.762;23.598;2023-06-05T10:16:30;97558.10;;;25.14;45.39
61359;BME280;47228;46.762;23.598;2023-06-05T10:18:59;97551.84;;;25.03;45.55
61359;BME280;47228;46.762;23.598;2023-06-05T10:21:27;97550.40;;;24.98;46.21
61359;BME280;47228;46.762;23.598;2023-06-05T10:24:05;97541.70;;;25.09;45.58
61359;BME280;47228;46.762;23.598;2023-06-05T10:35:13;97523.56;;;26.42;43.47
61359;BME280;47228;46.762;23.598;2023-06-05T10:40:34;97526.72;;;27.12;41.85
61359;BME280;47228;46.762;23.598;2023-06-05T10:43:25;97522.17;;;27.36;41.87
61359;BME280;47228;46.762;23.598;2023-06-05T10:45:55;97522.45;;;27.62;41.83
61359;BME280;47228;46.762;23.598;2023-06-05T10:49:28;97527.48;;;27.89;41.02
61359;BME280;47228;46.762;23.598;2023-06-05T10:51:52;97524.71;;;28.15;41.15
61359;BME280;47228;46.762;23.598;2023-06-05T10:57:03;97530.95;;;28.63;39.68
61359;BME280;47228;46.762;23.598;2023-06-05T10:59:35;97529.80;;;28.75;37.89
61359;BME280;47228;46.762;23.598;2023-06-05T11:07:17;97522.59;;;28.93;37.60
61359;BME280;47228;46.762;23.598;2023-06-05T11:10:07;97525.10;;;29.06;37.39
61359;BME280;47228;46.762;23.598;2023-06-05T11:15:05;97518.22;;;29.31;36.17
61359;BME280;47228;46.762;23.598;2023-06-05T11:17:35;97518.65;;;29.32;36.34
61359;BME280;47228;46.762;23.598;2023-06-05T11:20:05;97521.35;;;29.35;36.88
61359;BME280;47228;46.762;23.598;2023-06-05T11:27:56;97515.99;;;29.13;35.50
61359;BME280;47228;46.762;23.598;2023-06-05T11:30:30;97511.13;;;29.01;35.77
61359;BME280;47228;46.762;23.598;2023-06-05T11:33:18;97508.30;;;28.85;37.09
61359;BME280;47228;46.762;23.598;2023-06-05T11:35:50;97508.10;;;28.72;36.92
61359;BME280;47228;46.762;23.598;2023-06-05T11:38:21;97514.49;;;28.69;37.10
61359;BME280;47228;46.762;23.598;2023-06-05T11:40:53;97515.89;;;28.75;36.52
61359;BME280;47228;46.762;23.598;2023-06-05T11:43:22;97510.92;;;28.69;36.09
61359;BME280;47228;46.762;23.598;2023-06-05T11:45:51;97514.68;;;28.49;37.00
61359;BME280;47228;46.762;23.598;2023-06-05T11:48:20;97511.41;;;28.31;37.57
61359;BME280;47228;46.762;23.598;2023-06-05T11:50:59;97507.34;;;28.29;37.81
61359;BME280;47228;46.762;23.598;2023-06-05T11:53:29;97504.73;;;28.43;37.78
61359;BME280;47228;46.762;23.598;2023-06-05T11:55:58;97502.88;;;28.58;37.83
61359;BME280;47228;46.762;23.598;2023-06-05T11:58:34;97499.36;;;28.79;36.78
61359;BME280;47228;46.762;23.598;2023-06-05T12:01:14;97495.98;;;28.97;36.16
61359;BME280;47228;46.762;23.598;2023-06-05T12:03:46;97496.11;;;29.07;35.64
61359;BME280;47228;46.762;23.598;2023-06-05T12:06:16;97498.63;;;29.10;35.50
61359;BME280;47228;46.762;23.598;2023-06-05T12:08:45;97500.05;;;29.04;35.02
61359;BME280;47228;46.762;23.598;2023-06-05T12:11:25;97502.13;;;28.92;34.76
61359;BME280;47228;46.762;23.598;2023-06-05T12:13:55;97502.86;;;28.70;35.40
61359;BME280;47228;46.762;23.598;2023-06-05T12:19:17;97503.56;;;28.20;36.03
61359;BME280;47228;46.762;23.598;2023-06-05T12:21:47;97500.60;;;27.94;35.74
61359;BME280;47228;46.762;23.598;2023-06-05T12:24:25;97497.60;;;27.69;35.91
61359;BME280;47228;46.762;23.598;2023-06-05T12:26:58;97498.52;;;27.47;37.10
61359;BME280;47228;46.762;23.598;2023-06-05T12:29:29;97499.30;;;27.26;38.00
61359;BME280;47228;46.762;23.598;2023-06-05T12:31:59;97497.58;;;27.02;38.54
61359;BME280;47228;46.762;23.598;2023-06-05T12:34:47;97491.34;;;26.82;38.54
61359;BME280;47228;46.762;23.598;2023-06-05T12:37:30;97492.20;;;26.61;38.34
61359;BME280;47228;46.762;23.598;2023-06-05T12:40:18;97492.38;;;26.42;38.84
61359;BME280;47228;46.762;23.598;2023-06-05T12:43:16;97492.21;;;26.25;39.68
61359;BME280;47228;46.762;23.598;2023-06-05T12:45:44;97482.92;;;26.09;39.92
61359;BME280;47228;46.762;23.598;2023-06-05T12:48:12;97477.95;;;25.97;40.25
61359;BME280;47228;46.762;23.598;2023-06-05T12:50:40;97482.04;;;25.85;40.57
61359;BME280;47228;46.762;23.598;2023-06-05T12:53:09;97484.23;;;25.74;40.30
61359;BME280;47228;46.762;23.598;2023-06-05T12:55:37;97484.40;;;25.58;40.68
61359;BME280;47228;46.762;23.598;2023-06-05T12:58:04;97484.77;;;25.45;41.75
61359;BME280;47228;46.762;23.598;2023-06-05T13:00:33;97482.14;;;25.30;41.84
61359;BME280;47228;46.762;23.598;2023-06-05T13:03:01;97480.93;;;25.14;42.47
61359;BME280;47228;46.762;23.598;2023-06-05T13:05:50;97473.90;;;24.97;42.91
61359;BME280;47228;46.762;23.598;2023-06-05T13:08:18;97469.90;;;24.84;43.19
61359;BME280;47228;46.762;23.598;2023-06-05T13:10:46;97470.77;;;24.71;43.50
61359;BME280;47228;46.762;23.598;2023-06-05T13:13:14;97469.91;;;24.59;43.88
61359;BME280;47228;46.762;23.598;2023-06-05T13:15:44;97468.59;;;24.53;44.57
61359;BME280;47228;46.762;23.598;2023-06-05T13:18:12;97468.62;;;24.50;44.78
61359;BME280;47228;46.762;23.598;2023-06-05T13:20:40;97465.09;;;24.47;45.19
61359;BME280;47228;46.762;23.598;2023-06-05T13:23:08;97464.61;;;24.46;45.27
61359;BME280;47228;46.762;23.598;2023-06-05T13:25:38;97466.50;;;24.46;45.08
61359;BME280;47228;46.762;23.598;2023-06-05T13:28:07;97463.19;;;24.43;45.23
61359;BME280;47228;46.762;23.598;2023-06-05T13:30:35;97461.27;;;24.35;45.41
61359;BME280;47228;46.762;23.598;2023-06-05T13:33:03;97459.08;;;24.25;45.59
61359;BME280;47228;46.762;23.598;2023-06-05T13:35:31;97462.93;;;24.20;46.06
61359;BME280;47228;46.762;23.598;2023-06-05T13:37:59;97462.19;;;24.14;45.90